Flight Track Log - Related Links

Times and Time Zones

All times are in EDT time to prevent confusion due to time zone crossing. See the SWA923 flight status page for this flight to view local times or setup timezone preferences in your user account.

Time Position Orientation Groundspeed Altitude Reporting Facility
EDT Latitude Longitude Course Direction KTS MPH feet Rate Location/Type
Mon 06:27:54 PM 41.8169 -87.7517 33° Northeast 212 244 3,000  Level Chicago Center
Mon 06:28:57 PM 41.8100 -87.6575 96° East 207 238 6,000 3,120 Climbing Chicago Center
Mon 06:29:59 PM 41.8019 -87.5575 96° East 255 293 9,500 2,952 Climbing Chicago Center
Mon 06:31:01 PM 41.7925 -87.4481 97° East 293 337 12,100 2,855 Climbing Chicago Center
Mon 06:32:03 PM 41.7822 -87.3214 96° East 337 388 15,400 2,952 Climbing Chicago Center
Mon 06:33:05 PM 41.7719 -87.1886 96° East 357 411 18,200 2,903 Climbing Chicago Center
Mon 06:34:07 PM 41.7611 -87.0197 95° East 380 437 21,400 2,710 Climbing Chicago Center
Mon 06:35:09 PM 41.7633 -86.8703 89° East 401 461 23,800 2,160 Climbing Chicago Center
Mon 06:36:12 PM 41.7650 -86.7158 89° East 416 479 25,900 1,935 Climbing Chicago Center
Mon 06:37:13 PM 41.7658 -86.5656 90° East 433 498 27,800 1,902 Climbing Chicago Center
Mon 06:38:15 PM 41.7672 -86.3661 89° East 448 516 29,800 1,645 Climbing Chicago Center
Mon 06:39:17 PM 41.7683 -86.1944 89° East 461 531 31,200 1,645 Climbing Chicago Center
Mon 06:40:19 PM 41.7622 -86.0217 93° East 466 536 33,200 1,839 Climbing Chicago Center
Mon 06:41:21 PM 41.7528 -85.8494 94° East 464 534 35,000 1,680 Climbing Chicago Center
Mon 06:42:24 PM 41.7444 -85.6808 94° East 458 527 36,700 1,392 Climbing Chicago Center
Mon 06:43:26 PM 41.7358 -85.5092 94° East 457 526 37,900 1,113 Climbing Chicago Center
Mon 06:44:28 PM 41.7225 -85.3256 95° East 449 517 39,000 532 Climbing Chicago Center
Mon 06:45:30 PM 41.7158 -85.1597 93° East 468 539 39,000  Level Chicago Center
Mon 06:46:32 PM 41.7031 -84.9583 95° East 455 524 39,000  Level Chicago Center
Mon 06:47:34 PM 41.6931 -84.7919 95° East 450 518 39,000  Level Chicago Center
Mon 06:48:36 PM 41.6817 -84.6247 95° East 452 520 39,000  Level Chicago Center
Mon 06:49:38 PM 41.6708 -84.4578 95° East 451 519 39,000  Level Chicago Center
Mon 06:50:40 PM 41.6603 -84.2919 95° East 450 518 39,000  Level Chicago Center
Mon 06:51:42 PM 41.6256 -84.1375 107° East 434 499 39,000  Level Chicago Center
Mon 06:52:44 PM 41.5631 -84.0028 122° Southeast 427 491 39,000  Level Chicago Center
Mon 06:53:46 PM 41.4897 -83.8369 121° Southeast 433 498 39,000  Level Chicago Center
Mon 06:54:48 PM 41.4283 -83.7017 121° Southeast 428 493 39,000  Level Chicago Center
Mon 06:55:50 PM 41.3672 -83.5672 121° Southeast 426 490 39,000  Level Chicago Center
Mon 06:57:05 PM 41.2853 -83.4017 123° Southeast 429 494 39,000  Level Cleveland Center
Mon 06:58:05 PM 41.2258 -83.2667 120° Southeast 429 494 39,000  Level Cleveland Center
Mon 06:59:05 PM 41.1564 -83.1203 122° Southeast 429 494 39,000  Level Cleveland Center
Mon 07:00:05 PM 41.0925 -82.9831 122° Southeast 429 494 39,000  Level Cleveland Center
Mon 07:02:20 PM 40.9542 -82.6836 121° Southeast 433 498 39,000  Level Indianapolis Center
Mon 07:03:21 PM 40.8900 -82.5467 122° Southeast 435 501 39,000  Level Indianapolis Center
Mon 07:04:23 PM 40.8244 -82.4097 122° Southeast 439 505 39,000  Level Indianapolis Center
Mon 07:05:24 PM 40.7592 -82.2744 122° Southeast 436 502 39,000  Level Indianapolis Center
Mon 07:06:26 PM 40.6947 -82.1406 122° Southeast 432 497 39,000  Level Indianapolis Center
Mon 07:07:16 PM 40.6356 -82.0222 123° Southeast 435 501 39,000  Level Cleveland Center
Mon 07:08:16 PM 40.5703 -81.8897 123° Southeast 430 495 39,000  Level Cleveland Center
Mon 07:09:16 PM 40.5050 -81.7544 122° Southeast 435 501 39,000 -200 Level Cleveland Center
Mon 07:10:16 PM 40.4417 -81.6225 122° Southeast 425 489 38,600 -700 Descending Cleveland Center
Mon 07:11:16 PM 40.3783 -81.4933 123° Southeast 425 489 37,600 -800 Descending Cleveland Center
Mon 07:12:16 PM 40.3147 -81.3536 121° Southeast 414 476 37,000 -300 Descending Cleveland Center
Mon 07:13:16 PM 40.2508 -81.2250 123° Southeast 414 476 37,000  Level Cleveland Center
Mon 07:14:16 PM 40.1722 -81.1292 137° Southeast 398 458 37,000  Level Cleveland Center
Mon 07:15:16 PM 40.0869 -81.0469 144° Southeast 376 433 37,000  Level Cleveland Center
Mon 07:16:16 PM 40.0039 -80.9653 143° Southeast 382 440 37,000 -100 Level Cleveland Center
Mon 07:17:16 PM 39.9208 -80.8836 143° Southeast 382 440 36,800 -600 Descending Cleveland Center
Mon 07:18:16 PM 39.8356 -80.7994 143° Southeast 382 440 35,800 -950 Descending Cleveland Center
Mon 07:19:16 PM 39.7503 -80.7181 144° Southeast 382 440 34,900 -950 Descending Cleveland Center
Mon 07:20:16 PM 39.6647 -80.6317 142° Southeast 382 440 33,900 -950 Descending Cleveland Center
Mon 07:21:16 PM 39.6003 -80.5022 123° Southeast 402 463 33,000 -950 Descending Cleveland Center
Mon 07:22:16 PM 39.5792 -80.3381 99° East 419 482 32,000 -900 Descending Cleveland Center
Mon 07:23:16 PM 39.5956 -80.2006 81° East 433 498 31,200 -950 Descending Cleveland Center
Mon 07:24:16 PM 39.6489 -80.0222 69° East 454 522 30,100 -1,000 Descending Cleveland Center
Mon 07:25:16 PM 39.7042 -79.8625 66° East 464 534 29,200 -1,000 Descending Cleveland Center
Mon 07:26:16 PM 39.6678 -79.7200 108° East 413 475 28,100 -830 Descending Cleveland Center
Mon 07:27:55 PM 39.5733 -79.5008 119° Southeast 400 460 27,000 -413 Descending Washington Center
Mon 07:28:56 PM 39.5189 -79.3767 120° Southeast 400 460 27,000 -99 Level Washington Center
Mon 07:29:56 PM 39.4761 -79.2750 119° Southeast 400 460 26,800 -1,934 Descending Washington Center
Mon 07:30:57 PM 39.4186 -79.1108 114° Southeast 410 472 23,100 -2,678 Descending Washington Center
Mon 07:31:57 PM 39.3933 -78.9672 103° East 410 472 21,400 -1,831 Descending Washington Center
Mon 07:32:55 PM 39.3703 -78.8267 102° East 410 472 19,500 -1,866 Descending Washington Center
Mon 07:33:56 PM 39.3467 -78.6942 103° East 396 456 17,700 -1,820 Descending Washington Center
Mon 07:34:57 PM 39.3247 -78.5669 103° East 372 428 15,800 -1,770 Descending Washington Center
Mon 07:35:58 PM 39.3006 -78.4453 104° East 357 411 14,100 -1,714 Descending Washington Center
Mon 07:36:56 PM 39.2700 -78.3342 110° East 343 395 12,400 -1,576 Descending Washington Center
Mon 07:37:56 PM 39.2200 -78.2386 124° Southeast 324 373 11,000 -1,289 Descending Washington Center
Mon 07:38:57 PM 39.2097 -78.1364 97° East 287 330 9,800 -1,289 Descending Washington Center
Mon 07:39:57 PM 39.2119 -78.0292 88° East 287 330 8,400 -1,487 Descending Washington Center
Mon 07:40:54 PM 39.2158 -77.9250 87° East 287 330 6,900 -1,462 Descending Washington Center
Mon 07:41:56 PM 39.2200 -77.8258 87° East 287 330 5,500 -927 Descending Washington Center
Mon 07:42:57 PM 39.2175 -77.7242 92° East 281 323 5,000 -756 Descending Washington Center
Mon 07:43:55 PM 39.2025 -77.6297 102° East 275 316 4,000 -984 Descending Washington Center
Mon 07:45:05 PM 39.1667 -77.5333 116° Southeast 259 298 2,900 -600 Descending Potomac TRACON
Mon 07:46:05 PM 39.1167 -77.4833 142° Southeast 220 253 2,700 -300 Descending Potomac TRACON
Mon 07:47:05 PM 39.0833 -77.4500 142° Southeast 155 178 2,300 -550 Descending Potomac TRACON
Mon 07:48:05 PM 39.0333 -77.4500 180° South 131 151 1,600 -700 Descending Potomac TRACON
Mon 07:49:05 PM 39.0000 -77.4667 201° Southwest 134 154 900 -700 Descending Potomac TRACON
Mon 07:51:00 PM 38.9474 -77.4599 159° South  Level Estimated
Mon 07:58:00 PM 38.9474 -77.4599 159° South  Level Estimated
Mon 07:59:00 PM 38.9474 -77.4599 159° South  Level Estimated
Mon 08:00:00 PM 38.9474 -77.4599 159° South  Level Estimated

Login

Don't have an account? Register now (free) for customized features, flight alerts, and more!